createdAt,value
2023-04-08T00:01:53.280Z,4.02
2023-04-08T00:06:56.382Z,3.96
2023-04-08T00:11:59.237Z,3.95
2023-04-08T00:17:01.914Z,3.89
2023-04-08T00:22:04.773Z,3.78
2023-04-08T00:27:07.393Z,3.81
2023-04-08T00:32:10.318Z,3.79
2023-04-08T00:37:13.520Z,3.65
2023-04-08T00:42:16.261Z,3.60
2023-04-08T00:47:18.942Z,3.59
2023-04-08T00:52:21.545Z,3.56
2023-04-08T00:57:24.175Z,3.49
2023-04-08T01:02:39.167Z,3.31
2023-04-08T01:07:47.196Z,3.16
2023-04-08T01:12:55.737Z,3.08
2023-04-08T01:18:00.732Z,3.05
2023-04-08T01:23:23.302Z,3.08
2023-04-08T01:28:29.645Z,3.06
2023-04-08T01:33:36.602Z,2.92
2023-04-08T01:38:40.067Z,3.09
2023-04-08T01:43:45.031Z,2.96
2023-04-08T01:48:49.040Z,2.91
2023-04-08T01:53:51.930Z,2.78
2023-04-08T01:58:58.938Z,2.81
2023-04-08T02:04:03.755Z,2.82
2023-04-08T02:09:06.445Z,2.80
2023-04-08T02:14:09.030Z,2.77
2023-04-08T02:19:20.268Z,2.48
2023-04-08T02:24:23.044Z,2.71
2023-04-08T02:29:29.458Z,2.69
2023-04-08T02:34:32.668Z,2.71
2023-04-08T02:39:36.894Z,2.65
2023-04-08T02:44:39.553Z,2.80
2023-04-08T02:49:42.118Z,2.83
2023-04-08T02:54:44.707Z,2.68
2023-04-08T02:59:47.257Z,2.60
2023-04-08T03:04:49.886Z,2.90
2023-04-08T03:09:52.910Z,3.10
2023-04-08T03:14:55.578Z,3.23
2023-04-08T03:19:58.528Z,3.12
2023-04-08T03:25:01.161Z,3.32
2023-04-08T03:30:05.921Z,3.60
2023-04-08T03:35:09.095Z,3.79
2023-04-08T03:40:12.286Z,3.93
2023-04-08T03:45:14.959Z,4.45
2023-04-08T03:50:17.593Z,4.45
2023-04-08T03:55:20.280Z,4.53
2023-04-08T04:00:23.075Z,4.64
2023-04-08T04:05:26.432Z,4.75
2023-04-08T04:10:29.127Z,4.95
2023-04-08T04:15:31.865Z,5.15
2023-04-08T04:20:34.515Z,5.09
2023-04-08T04:25:37.165Z,4.89
2023-04-08T04:30:40.416Z,4.95
2023-04-08T04:35:43.155Z,5.29
2023-04-08T04:40:46.225Z,5.69
2023-04-08T04:45:48.872Z,5.98
2023-04-08T04:50:56.153Z,6.04
2023-04-08T04:56:01.369Z,6.24
2023-04-08T05:01:03.981Z,6.41
2023-04-08T05:06:07.189Z,6.66
2023-04-08T05:11:11.398Z,6.83
2023-04-08T05:16:14.072Z,6.94
2023-04-08T05:21:16.684Z,6.97
2023-04-08T05:26:21.869Z,6.74
2023-04-08T05:31:24.910Z,6.55
2023-04-08T05:36:28.163Z,6.74
2023-04-08T05:41:30.994Z,6.86
2023-04-08T05:46:33.670Z,7.10
2023-04-08T05:51:36.242Z,7.02
2023-04-08T05:56:39.114Z,7.14
2023-04-08T06:01:41.895Z,7.42
2023-04-08T06:06:44.673Z,7.74
2023-04-08T06:11:49.367Z,7.96
2023-04-08T06:16:54.874Z,8.51
2023-04-08T06:21:59.168Z,8.84
2023-04-08T06:27:03.448Z,9.02
2023-04-08T06:32:06.670Z,9.43
2023-04-08T06:37:09.623Z,9.61
2023-04-08T06:42:12.451Z,9.90
2023-04-08T06:47:34.940Z,10.08
2023-04-08T06:52:37.564Z,10.25
2023-04-08T06:57:40.168Z,9.38
2023-04-08T07:02:42.933Z,9.83
2023-04-08T07:07:45.530Z,9.61
2023-04-08T07:12:48.479Z,9.46
2023-04-08T07:17:51.837Z,9.60
2023-04-08T07:22:54.460Z,9.10
2023-04-08T07:27:57.279Z,9.22
2023-04-08T07:33:01.066Z,9.33
2023-04-08T07:38:04.231Z,9.49
2023-04-08T07:43:06.930Z,9.55
2023-04-08T07:48:09.734Z,9.37
2023-04-08T07:53:12.417Z,9.96
2023-04-08T07:58:15.009Z,10.08
2023-04-08T08:03:17.749Z,10.24
2023-04-08T08:08:20.405Z,10.33
2023-04-08T08:13:23.005Z,9.97
2023-04-08T08:18:25.611Z,10.43
2023-04-08T08:23:28.166Z,10.61
2023-04-08T08:28:30.811Z,10.27
2023-04-08T08:33:34.126Z,10.67
2023-04-08T08:38:36.764Z,11.04
2023-04-08T08:43:39.568Z,11.39
2023-04-08T08:48:42.202Z,11.40
2023-04-08T08:53:45.774Z,11.12
2023-04-08T08:58:49.265Z,10.78
2023-04-08T09:04:25.027Z,11.30
2023-04-08T09:09:27.695Z,11.56
2023-04-08T09:14:30.472Z,11.78
2023-04-08T09:19:33.017Z,12.01
2023-04-08T09:24:37.292Z,12.23
2023-04-08T09:29:41.184Z,11.76
2023-04-08T09:34:43.775Z,11.55
2023-04-08T09:39:46.344Z,11.98
2023-04-08T09:44:49.040Z,11.94
2023-04-08T09:49:58.605Z,11.89
2023-04-08T09:55:09.310Z,12.14
2023-04-08T10:00:15.143Z,12.53
2023-04-08T10:05:19.400Z,12.01
2023-04-08T10:10:22.645Z,11.56
2023-04-08T10:15:32.680Z,11.93
2023-04-08T10:20:35.969Z,11.45
2023-04-08T10:25:39.500Z,11.87
2023-04-08T10:30:48.939Z,11.97
2023-04-08T10:35:59.646Z,12.30
2023-04-08T10:41:02.812Z,12.71
2023-04-08T10:46:05.704Z,12.91
2023-04-08T10:51:08.315Z,13.19
2023-04-08T10:56:17.011Z,12.75
2023-04-08T11:01:20.247Z,12.80
2023-04-08T11:06:23.563Z,12.99
2023-04-08T11:11:29.602Z,13.33
2023-04-08T11:16:32.802Z,13.62
2023-04-08T11:21:37.682Z,13.75
2023-04-08T11:26:41.081Z,13.79
2023-04-08T11:31:44.473Z,13.80
2023-04-08T11:36:47.310Z,12.59
2023-04-08T11:41:50.270Z,12.80
2023-04-08T11:46:57.411Z,12.89
2023-04-08T11:52:00.572Z,13.36
2023-04-08T11:57:03.681Z,13.53
2023-04-08T12:02:06.451Z,13.17
2023-04-08T12:07:10.883Z,13.23
2023-04-08T12:12:13.542Z,13.73
2023-04-08T12:17:16.414Z,13.81
2023-04-08T12:22:19.022Z,13.84
2023-04-08T12:27:21.602Z,13.95
2023-04-08T12:32:25.552Z,13.87
2023-04-08T12:37:28.684Z,13.77
2023-04-08T12:42:31.758Z,13.69
2023-04-08T12:47:34.471Z,13.41
2023-04-08T12:52:37.203Z,13.76
2023-04-08T12:57:39.906Z,14.04
2023-04-08T13:02:42.837Z,13.77
2023-04-08T13:07:46.273Z,13.30
2023-04-08T13:12:48.958Z,13.35
2023-04-08T13:17:51.772Z,13.47
2023-04-08T13:22:54.476Z,13.72
2023-04-08T13:27:58.598Z,13.84
2023-04-08T13:33:01.524Z,13.77
2023-04-08T13:38:04.247Z,13.68
2023-04-08T13:43:06.907Z,13.92
2023-04-08T13:48:09.697Z,14.09
2023-04-08T13:53:12.835Z,13.89
2023-04-08T13:58:23.424Z,13.86
2023-04-08T14:03:26.791Z,13.88
2023-04-08T14:08:29.364Z,13.82
2023-04-08T14:13:32.505Z,13.62
2023-04-08T14:18:35.131Z,13.34
2023-04-08T14:23:37.701Z,13.30
2023-04-08T14:28:40.520Z,13.19
2023-04-08T14:33:43.371Z,13.30
2023-04-08T14:38:46.208Z,13.30
2023-04-08T14:43:49.155Z,13.40
2023-04-08T14:48:51.887Z,13.42
2023-04-08T14:53:54.529Z,13.37
2023-04-08T14:58:57.130Z,13.15
2023-04-08T15:04:00.183Z,13.03
2023-04-08T15:09:03.777Z,12.84
2023-04-08T15:14:06.461Z,12.61
2023-04-08T15:19:09.270Z,12.21
2023-04-08T15:24:12.813Z,12.38
2023-04-08T15:29:15.651Z,12.44
2023-04-08T15:34:18.521Z,12.07
2023-04-08T15:39:23.938Z,12.15
2023-04-08T15:44:26.602Z,12.09
2023-04-08T15:49:29.179Z,11.97
2023-04-08T15:54:33.615Z,11.96
2023-04-08T15:59:36.848Z,11.94
2023-04-08T16:04:39.589Z,11.81
2023-04-08T16:09:42.365Z,11.78
2023-04-08T16:14:46.487Z,11.62
2023-04-08T16:19:51.807Z,11.49
2023-04-08T16:24:54.457Z,11.33
2023-04-08T16:29:57.615Z,11.17
2023-04-08T16:35:00.421Z,11.07
2023-04-08T16:40:03.868Z,10.95
2023-04-08T16:45:07.084Z,10.92
2023-04-08T16:50:09.966Z,10.80
2023-04-08T16:55:14.512Z,10.61
2023-04-08T17:00:19.652Z,10.55
2023-04-08T17:05:23.668Z,10.42
2023-04-08T17:10:26.359Z,10.22
2023-04-08T17:15:28.929Z,10.21
2023-04-08T17:20:31.633Z,10.16
2023-04-08T17:25:35.554Z,10.01
2023-04-08T17:30:39.786Z,10.05
2023-04-08T17:35:42.697Z,9.93
2023-04-08T17:40:46.555Z,9.74
2023-04-08T17:45:50.622Z,9.46
2023-04-08T17:51:02.880Z,9.62
2023-04-08T17:56:06.354Z,9.56
2023-04-08T18:01:08.999Z,9.52
2023-04-08T18:06:11.647Z,9.33
2023-04-08T18:11:14.424Z,9.25
2023-04-08T18:16:18.956Z,9.21
2023-04-08T18:21:22.237Z,9.20
2023-04-08T18:26:25.161Z,9.07
2023-04-08T18:31:27.888Z,9.02
2023-04-08T18:36:30.591Z,8.94
2023-04-08T18:41:33.238Z,8.78
2023-04-08T18:46:36.177Z,8.68
2023-04-08T18:51:42.164Z,8.66
2023-04-08T18:56:49.463Z,8.65
2023-04-08T19:01:52.302Z,8.50
2023-04-08T19:06:55.183Z,8.42
2023-04-08T19:11:57.911Z,8.40
2023-04-08T19:17:01.185Z,8.40
2023-04-08T19:22:05.972Z,8.31
2023-04-08T19:27:09.162Z,8.16
2023-04-08T19:32:12.661Z,8.18
2023-04-08T19:37:15.538Z,8.12
2023-04-08T19:42:19.366Z,8.09
2023-04-08T19:47:22.213Z,8.11
2023-04-08T19:52:25.114Z,8.12
2023-04-08T19:57:28.055Z,8.05
2023-04-08T20:02:31.545Z,7.92
2023-04-08T20:07:34.235Z,7.80
2023-04-08T20:12:36.846Z,7.63
2023-04-08T20:17:39.510Z,7.54
2023-04-08T20:22:42.135Z,7.44
2023-04-08T20:27:44.800Z,7.29
2023-04-08T20:32:47.553Z,7.22
2023-04-08T20:37:50.325Z,7.11
2023-04-08T20:42:52.936Z,7.22
2023-04-08T20:47:55.858Z,7.20
2023-04-08T20:52:59.068Z,7.26
2023-04-08T20:58:05.838Z,7.27
2023-04-08T21:03:08.654Z,7.18
2023-04-08T21:08:11.425Z,7.12
2023-04-08T21:13:14.063Z,7.10
2023-04-08T21:18:16.709Z,7.13
2023-04-08T21:23:19.285Z,7.09
2023-04-08T21:28:22.135Z,7.10
2023-04-08T21:33:24.729Z,7.09
2023-04-08T21:38:27.304Z,7.06
2023-04-08T21:43:30.019Z,7.02
2023-04-08T21:48:32.751Z,7.02
2023-04-08T21:53:35.478Z,6.99
2023-04-08T21:58:38.047Z,6.94
2023-04-08T22:03:40.719Z,6.74
2023-04-08T22:08:43.332Z,6.88
2023-04-08T22:13:46.040Z,6.80
2023-04-08T22:18:48.629Z,6.77
2023-04-08T22:23:51.525Z,6.67
2023-04-08T22:28:54.894Z,6.67
2023-04-08T22:33:57.712Z,6.65
2023-04-08T22:39:00.418Z,6.66
2023-04-08T22:44:03.120Z,6.54
2023-04-08T22:49:05.873Z,6.57
2023-04-08T22:54:08.582Z,6.50
2023-04-08T22:59:11.230Z,6.52
2023-04-08T23:04:13.929Z,6.50
2023-04-08T23:09:16.630Z,6.28
2023-04-08T23:14:19.231Z,6.30
2023-04-08T23:19:21.908Z,6.23
2023-04-08T23:24:24.449Z,6.22
2023-04-08T23:29:27.181Z,6.17
2023-04-08T23:34:29.772Z,6.12
2023-04-08T23:39:32.485Z,6.08
2023-04-08T23:44:35.090Z,6.03
2023-04-08T23:49:37.639Z,6.06
2023-04-08T23:54:40.373Z,6.07
2023-04-08T23:59:42.966Z,6.09
